createdAt,value
2019-01-13T00:01:19.975Z,99442.06
2019-01-13T00:06:38.658Z,99431.89
2019-01-13T00:11:57.219Z,99429.53
2019-01-13T00:17:15.841Z,99432.16
2019-01-13T00:22:35.731Z,99433.43
2019-01-13T00:27:54.377Z,99433.78
2019-01-13T00:33:12.943Z,99427.89
2019-01-13T00:38:31.567Z,99423.44
2019-01-13T00:43:50.460Z,99426.52
2019-01-13T00:49:09.129Z,99434.75
2019-01-13T00:54:27.834Z,99432.41
2019-01-13T00:59:46.937Z,99429.27
2019-01-13T01:05:08.595Z,99420.81
2019-01-13T01:10:27.254Z,99420.43
2019-01-13T01:15:45.893Z,99409.89
2019-01-13T01:21:04.617Z,99401.09
2019-01-13T01:26:24.784Z,99395.70
2019-01-13T01:31:43.425Z,99396.97
2019-01-13T01:37:01.988Z,99393.19
2019-01-13T01:42:20.543Z,99406.87
2019-01-13T01:47:39.195Z,99405.55
2019-01-13T01:52:58.052Z,99390.99
2019-01-13T01:58:16.697Z,99396.27
2019-01-13T02:03:35.455Z,99388.79
2019-01-13T02:08:55.380Z,99375.78
2019-01-13T02:14:14.055Z,99374.67
2019-01-13T02:19:32.733Z,99351.06
2019-01-13T02:24:51.287Z,99327.39
2019-01-13T02:30:13.132Z,99322.62
2019-01-13T02:35:31.796Z,99331.11
2019-01-13T02:40:50.459Z,99310.69
2019-01-13T02:46:09.172Z,99301.41
2019-01-13T02:51:28.454Z,99313.28
2019-01-13T02:56:47.180Z,99320.75
2019-01-13T03:02:06.686Z,99320.43
2019-01-13T03:07:27.026Z,99334.19
2019-01-13T03:12:46.174Z,99337.71
2019-01-13T03:18:04.915Z,99348.11
2019-01-13T03:23:23.744Z,99346.12
2019-01-13T03:28:42.388Z,99332.61
2019-01-13T03:34:01.042Z,99327.66
2019-01-13T03:39:19.793Z,99318.66
2019-01-13T03:44:38.506Z,99288.30
2019-01-13T03:49:57.165Z,99271.42
2019-01-13T03:55:17.033Z,99264.83
2019-01-13T04:00:35.735Z,99249.62
2019-01-13T04:05:54.434Z,99227.28
2019-01-13T04:11:13.008Z,99219.08
2019-01-13T04:16:31.701Z,99221.25
2019-01-13T04:21:50.326Z,99219.12
2019-01-13T04:27:09.030Z,99213.13
2019-01-13T04:32:27.589Z,99210.81
2019-01-13T04:37:46.203Z,99190.33
2019-01-13T04:43:04.941Z,99185.37
2019-01-13T04:48:23.832Z,99172.80
2019-01-13T04:53:42.442Z,99151.20
2019-01-13T04:59:01.600Z,99147.14
2019-01-13T05:04:20.233Z,99127.16
2019-01-13T05:09:38.835Z,99128.11
2019-01-13T05:14:57.433Z,99113.87
2019-01-13T05:20:21.163Z,99092.01
2019-01-13T05:25:39.737Z,99095.55
2019-01-13T05:30:58.387Z,99076.69
2019-01-13T05:36:17.031Z,99067.55
2019-01-13T05:41:37.496Z,99042.68
2019-01-13T05:46:57.791Z,99052.55
2019-01-13T05:52:18.670Z,99042.20
2019-01-13T05:57:37.437Z,99030.73
2019-01-13T06:02:58.202Z,99032.37
2019-01-13T06:08:16.958Z,99040.30
2019-01-13T06:13:37.039Z,99042.33
2019-01-13T06:18:55.676Z,99039.58
2019-01-13T06:24:15.688Z,99036.34
2019-01-13T06:29:34.505Z,99028.34
2019-01-13T06:34:53.672Z,99011.80
2019-01-13T06:40:15.044Z,99031.48
2019-01-13T06:45:34.101Z,99017.20
2019-01-13T06:50:52.775Z,99014.48
2019-01-13T06:56:11.509Z,99003.70
2019-01-13T07:01:30.247Z,99000.06
2019-01-13T07:06:48.890Z,98991.02
2019-01-13T07:12:07.428Z,98989.42
2019-01-13T07:17:27.333Z,98982.92
2019-01-13T07:22:46.163Z,98967.91
2019-01-13T07:28:04.870Z,98969.63
2019-01-13T07:33:24.605Z,98956.63
2019-01-13T07:38:43.250Z,98959.17
2019-01-13T07:44:03.521Z,98958.25
2019-01-13T07:49:22.141Z,98942.91
2019-01-13T07:54:40.783Z,98939.08
2019-01-13T07:59:59.422Z,98940.48
2019-01-13T08:05:18.276Z,98951.25
2019-01-13T08:10:38.483Z,98938.73
2019-01-13T08:15:57.116Z,98934.98
2019-01-13T08:21:15.760Z,98910.70
2019-01-13T08:26:34.519Z,98910.70
2019-01-13T08:31:53.272Z,98927.22
2019-01-13T08:37:11.940Z,98913.74
2019-01-13T08:42:30.612Z,98906.49
2019-01-13T08:47:49.273Z,98917.45
2019-01-13T08:53:07.968Z,98903.63
2019-01-13T08:58:26.660Z,98890.23
2019-01-13T09:03:45.325Z,98898.44
2019-01-13T09:09:07.293Z,98883.69
2019-01-13T09:14:26.011Z,98881.02
2019-01-13T09:19:44.666Z,98863.14
2019-01-13T09:25:03.300Z,98870.22
2019-01-13T09:30:24.339Z,98846.31
2019-01-13T09:35:43.235Z,98856.66
2019-01-13T09:41:01.857Z,98844.77
2019-01-13T09:46:20.549Z,98840.05
2019-01-13T09:51:39.841Z,98845.89
2019-01-13T09:56:58.534Z,98834.70
2019-01-13T10:02:17.316Z,98823.00
2019-01-13T10:07:36.148Z,98811.03
2019-01-13T10:12:54.927Z,98793.86
2019-01-13T10:18:13.591Z,98798.91
2019-01-13T10:23:32.319Z,98817.02
2019-01-13T10:28:51.035Z,98817.41
2019-01-13T10:34:10.306Z,98802.72
2019-01-13T10:39:29.175Z,98800.46
2019-01-13T10:44:47.735Z,98776.95
2019-01-13T10:50:09.271Z,98768.52
2019-01-13T10:55:28.220Z,98756.73
2019-01-13T11:00:47.170Z,98739.26
2019-01-13T11:06:05.785Z,98720.83
2019-01-13T11:11:24.407Z,98726.12
2019-01-13T11:16:43.128Z,98709.94
2019-01-13T11:22:01.822Z,98714.09
2019-01-13T11:27:20.568Z,98706.85
2019-01-13T11:32:39.165Z,98695.30
2019-01-13T11:38:01.923Z,98684.95
2019-01-13T11:43:20.703Z,98671.89
2019-01-13T11:48:39.260Z,98671.55
2019-01-13T11:53:57.885Z,98665.38
2019-01-13T11:59:16.782Z,98642.91
2019-01-13T12:04:35.432Z,98635.26
2019-01-13T12:09:54.008Z,98640.03
2019-01-13T12:15:14.772Z,98613.91
2019-01-13T12:20:33.720Z,98611.20
2019-01-13T12:25:53.026Z,98620.14
2019-01-13T12:31:11.671Z,98608.97
2019-01-13T12:36:30.291Z,98597.68
2019-01-13T12:41:48.985Z,98599.31
2019-01-13T12:47:07.695Z,98586.50
2019-01-13T12:52:26.236Z,98587.05
2019-01-13T12:57:45.050Z,98573.02
2019-01-13T13:03:03.796Z,98572.20
2019-01-13T13:08:22.414Z,98570.44
2019-01-13T13:13:41.114Z,98541.67
2019-01-13T13:18:59.963Z,98539.98
2019-01-13T13:24:18.552Z,98529.98
2019-01-13T13:29:37.181Z,98496.66
2019-01-13T13:34:55.920Z,98496.66
2019-01-13T13:40:17.355Z,98523.83
2019-01-13T13:45:36.003Z,98491.67
2019-01-13T13:50:54.561Z,98495.63
2019-01-13T13:56:13.117Z,98482.21
2019-01-13T14:01:31.680Z,98484.34
2019-01-13T14:06:50.232Z,98461.42
2019-01-13T14:12:08.858Z,98454.55
2019-01-13T14:17:27.721Z,98456.23
2019-01-13T14:22:46.343Z,98458.33
2019-01-13T14:28:05.287Z,98445.56
2019-01-13T14:33:24.062Z,98446.08
2019-01-13T14:38:42.942Z,98454.31
2019-01-13T14:44:01.639Z,98440.59
2019-01-13T14:49:20.290Z,98446.98
2019-01-13T14:54:38.815Z,98448.52
2019-01-13T14:59:58.223Z,98442.12
2019-01-13T15:05:16.929Z,98430.53
2019-01-13T15:10:35.860Z,98450.58
2019-01-13T15:15:54.451Z,98444.55
2019-01-13T15:21:13.009Z,98424.79
2019-01-13T15:26:32.130Z,98441.07
2019-01-13T15:31:50.748Z,98442.12
2019-01-13T15:37:09.493Z,98450.85
2019-01-13T15:42:28.186Z,98447.40
2019-01-13T15:47:48.043Z,98446.39
2019-01-13T15:53:06.682Z,98454.97
2019-01-13T15:58:25.248Z,98443.73
2019-01-13T16:03:46.272Z,98446.17
2019-01-13T16:09:08.436Z,98432.59
2019-01-13T16:14:27.063Z,98437.52
2019-01-13T16:19:45.720Z,98436.47
2019-01-13T16:25:05.301Z,98431.42
2019-01-13T16:30:29.119Z,98427.31
2019-01-13T16:35:50.018Z,98434.43
2019-01-13T16:41:10.721Z,98424.67
2019-01-13T16:46:29.217Z,98416.50
2019-01-13T16:57:43.218Z,98415.18
2019-01-13T17:03:01.899Z,98396.69
2019-01-13T17:14:15.992Z,98379.75
2019-01-13T17:19:35.486Z,98375.91
2019-01-13T17:24:54.216Z,98352.63
2019-01-13T17:30:15.980Z,98349.88
2019-01-13T17:35:34.683Z,98356.69
2019-01-13T17:40:53.455Z,98346.27
2019-01-13T17:46:12.076Z,98356.48
2019-01-13T17:51:32.354Z,98362.66
2019-01-13T17:56:52.287Z,98345.13
2019-01-13T18:02:11.086Z,98349.72
2019-01-13T18:07:29.742Z,98355.25
2019-01-13T18:12:48.475Z,98347.38
2019-01-13T18:18:07.106Z,98343.06
2019-01-13T18:23:25.787Z,98392.63
2019-01-13T18:28:44.425Z,98433.89
2019-01-13T18:34:02.985Z,98400.08
2019-01-13T18:39:21.606Z,98419.62
2019-01-13T18:44:40.313Z,98413.59
2019-01-13T18:50:00.531Z,98415.49
2019-01-13T18:55:19.298Z,98413.32
2019-01-13T19:00:37.971Z,98411.98
2019-01-13T19:05:58.340Z,98416.34
2019-01-13T19:11:18.892Z,98416.34
2019-01-13T19:16:39.917Z,98439.11
2019-01-13T19:21:58.696Z,98422.45
2019-01-13T19:27:17.391Z,98424.00
2019-01-13T19:32:36.189Z,98433.61
2019-01-13T19:37:54.867Z,98447.68
2019-01-13T19:43:13.940Z,98452.14
2019-01-13T19:48:32.585Z,98452.02
2019-01-13T19:53:51.576Z,98436.77
2019-01-13T19:59:10.252Z,98436.27
2019-01-13T20:04:28.878Z,98436.47
2019-01-13T20:09:47.498Z,98443.17
2019-01-13T20:15:09.035Z,98439.41
2019-01-13T20:20:27.681Z,98444.92
2019-01-13T20:25:46.246Z,98455.84
2019-01-13T20:31:04.978Z,98453.11
2019-01-13T20:36:23.778Z,98465.86
2019-01-13T20:41:42.244Z,98470.48
2019-01-13T20:47:00.984Z,98474.94
2019-01-13T20:52:19.559Z,98482.39
2019-01-13T20:57:38.166Z,98488.98
2019-01-13T21:02:57.108Z,98486.75
2019-01-13T21:08:18.988Z,98481.96
2019-01-13T21:13:40.097Z,98497.98
2019-01-13T21:18:58.789Z,98504.81
2019-01-13T21:24:17.383Z,98532.61
2019-01-13T21:29:36.025Z,98544.36
2019-01-13T21:34:54.610Z,98545.25
2019-01-13T21:40:53.184Z,98552.22
2019-01-13T21:46:11.715Z,98559.31
2019-01-13T21:51:30.183Z,98564.71
2019-01-13T21:56:48.639Z,98563.17
2019-01-13T22:02:07.256Z,98581.02
2019-01-13T22:07:25.868Z,98586.38
2019-01-13T22:12:44.480Z,98569.05
2019-01-13T22:18:03.070Z,98562.08
2019-01-13T22:23:21.797Z,98563.50
2019-01-13T22:28:40.326Z,98565.03
2019-01-13T22:33:58.803Z,98567.95
2019-01-13T22:39:17.274Z,98563.22
2019-01-13T22:44:35.869Z,98559.17
2019-01-13T22:49:54.371Z,98560.47
2019-01-13T22:55:12.982Z,98575.02
2019-01-13T23:01:11.365Z,98571.58
2019-01-13T23:06:29.841Z,98579.25
2019-01-13T23:11:48.455Z,98589.80
2019-01-13T23:17:07.260Z,98586.47
2019-01-13T23:22:25.876Z,98596.89
2019-01-13T23:27:44.398Z,98596.39
2019-01-13T23:38:33.441Z,98614.41
2019-01-13T23:43:51.990Z,98616.77
2019-01-13T23:54:42.600Z,98629.71
